createdAt,value
2018-06-19T00:01:05.876Z,17.60
2018-06-19T00:03:34.158Z,17.60
2018-06-19T00:06:03.360Z,17.40
2018-06-19T00:08:31.675Z,17.50
2018-06-19T00:10:59.685Z,17.60
2018-06-19T00:13:28.098Z,17.60
2018-06-19T00:15:57.082Z,17.60
2018-06-19T00:18:27.419Z,17.60
2018-06-19T00:20:58.381Z,17.50
2018-06-19T00:23:26.551Z,17.60
2018-06-19T00:25:54.966Z,17.50
2018-06-19T00:28:23.024Z,17.50
2018-06-19T00:30:51.786Z,17.60
2018-06-19T00:33:20.013Z,17.60
2018-06-19T00:35:49.285Z,17.60
2018-06-19T00:38:17.473Z,17.60
2018-06-19T00:40:46.043Z,17.60
2018-06-19T00:43:14.057Z,17.60
2018-06-19T00:45:42.610Z,17.60
2018-06-19T00:48:10.604Z,17.60
2018-06-19T00:55:34.622Z,17.50
2018-06-19T00:58:02.718Z,17.50
2018-06-19T01:00:30.791Z,17.50
2018-06-19T01:02:59.087Z,17.50
2018-06-19T01:05:27.165Z,17.30
2018-06-19T01:07:55.713Z,17.40
2018-06-19T01:10:23.714Z,17.40
2018-06-19T01:12:51.764Z,17.40
2018-06-19T01:15:21.211Z,17.50
2018-06-19T01:17:49.582Z,17.50
2018-06-19T01:20:18.313Z,17.50
2018-06-19T01:22:46.440Z,17.50
2018-06-19T01:25:14.492Z,17.50
2018-06-19T01:27:42.770Z,17.50
2018-06-19T01:30:12.104Z,17.50
2018-06-19T01:32:40.059Z,17.50
2018-06-19T01:35:08.149Z,17.40
2018-06-19T01:37:36.273Z,17.30
2018-06-19T01:40:04.433Z,17.30
2018-06-19T01:42:32.395Z,17.30
2018-06-19T01:45:00.428Z,17.20
2018-06-19T01:47:28.521Z,17.10
2018-06-19T01:49:56.953Z,17.10
2018-06-19T01:52:28.908Z,17.10
2018-06-19T01:54:57.078Z,17.10
2018-06-19T01:57:25.103Z,17.00
2018-06-19T01:59:53.094Z,17.00
2018-06-19T02:02:21.107Z,17.10
2018-06-19T02:04:49.082Z,17.00
2018-06-19T02:07:17.153Z,17.00
2018-06-19T02:09:45.383Z,17.10
2018-06-19T02:12:13.504Z,17.00
2018-06-19T02:14:41.745Z,17.00
2018-06-19T02:17:10.402Z,17.00
2018-06-19T02:19:38.646Z,17.00
2018-06-19T02:24:34.587Z,16.90
2018-06-19T02:29:30.635Z,16.90
2018-06-19T02:31:58.847Z,16.90
2018-06-19T02:34:27.981Z,17.00
2018-06-19T02:36:57.246Z,17.00
2018-06-19T02:39:25.313Z,17.10
2018-06-19T02:41:53.386Z,17.00
2018-06-19T02:44:21.609Z,17.00
2018-06-19T02:49:17.792Z,16.80
2018-06-19T02:51:45.782Z,16.90
2018-06-19T02:54:14.148Z,16.90
2018-06-19T02:56:43.822Z,16.90
2018-06-19T02:59:12.010Z,16.80
2018-06-19T03:01:40.113Z,16.90
2018-06-19T03:04:08.175Z,16.90
2018-06-19T03:06:36.165Z,16.90
2018-06-19T03:09:07.745Z,16.90
2018-06-19T03:11:35.738Z,16.80
2018-06-19T03:14:04.177Z,16.70
2018-06-19T03:16:33.448Z,16.70
2018-06-19T03:19:01.803Z,16.70
2018-06-19T03:21:31.132Z,16.60
2018-06-19T03:23:59.210Z,16.60
2018-06-19T03:26:27.416Z,16.50
2018-06-19T03:31:23.761Z,16.50
2018-06-19T03:33:52.385Z,16.60
2018-06-19T03:36:20.734Z,16.50
2018-06-19T03:38:48.720Z,16.50
2018-06-19T03:41:17.062Z,16.50
2018-06-19T03:43:45.206Z,16.50
2018-06-19T03:46:13.807Z,16.60
2018-06-19T03:48:42.109Z,16.60
2018-06-19T03:51:10.286Z,16.50
2018-06-19T03:53:39.462Z,16.60
2018-06-19T03:56:07.978Z,16.70
2018-06-19T03:58:36.179Z,16.70
2018-06-19T04:01:04.567Z,16.80
2018-06-19T04:03:32.561Z,16.70
2018-06-19T04:06:00.964Z,16.70
2018-06-19T04:08:28.950Z,16.60
2018-06-19T04:10:58.798Z,16.70
2018-06-19T04:13:27.061Z,16.80
2018-06-19T04:15:56.255Z,16.70
2018-06-19T04:18:24.206Z,16.70
2018-06-19T04:20:53.145Z,16.70
2018-06-19T04:23:21.333Z,16.70
2018-06-19T04:28:17.399Z,16.70
2018-06-19T04:30:45.793Z,16.50
2018-06-19T04:33:13.806Z,16.60
2018-06-19T04:35:41.933Z,16.50
2018-06-19T04:38:10.006Z,16.50
2018-06-19T04:40:39.013Z,16.40
2018-06-19T04:43:06.978Z,16.40
2018-06-19T04:45:36.526Z,16.60
2018-06-19T04:48:04.679Z,16.80
2018-06-19T04:50:32.664Z,17.00
2018-06-19T04:53:01.027Z,17.00
2018-06-19T04:55:29.617Z,16.90
2018-06-19T04:57:58.756Z,17.00
2018-06-19T05:00:26.856Z,17.10
2018-06-19T05:02:55.366Z,17.10
2018-06-19T05:05:24.814Z,17.10
2018-06-19T05:07:52.765Z,17.00
2018-06-19T05:10:20.873Z,17.00
2018-06-19T05:12:50.367Z,17.00
2018-06-19T05:15:19.182Z,16.90
2018-06-19T05:17:47.423Z,17.20
2018-06-19T05:20:16.700Z,17.30
2018-06-19T05:22:44.716Z,17.30
2018-06-19T05:25:13.228Z,17.40
2018-06-19T05:27:41.183Z,17.60
2018-06-19T05:30:09.635Z,17.60
2018-06-19T05:32:37.670Z,17.50
2018-06-19T05:35:06.150Z,17.50
2018-06-19T05:37:34.822Z,17.60
2018-06-19T05:40:02.863Z,17.90
2018-06-19T05:42:30.926Z,18.10
2018-06-19T05:44:59.358Z,18.20
2018-06-19T05:47:27.475Z,18.20
2018-06-19T05:49:55.747Z,18.20
2018-06-19T05:52:23.807Z,18.40
2018-06-19T05:54:52.024Z,18.40
2018-06-19T05:57:20.939Z,18.30
2018-06-19T05:59:49.486Z,18.30
2018-06-19T06:02:18.285Z,18.10
2018-06-19T06:04:48.210Z,18.20
2018-06-19T06:07:18.346Z,18.30
2018-06-19T06:09:46.606Z,18.20
2018-06-19T06:12:14.633Z,18.30
2018-06-19T06:14:44.322Z,18.40
2018-06-19T06:17:12.374Z,18.30
2018-06-19T06:19:40.731Z,18.30
2018-06-19T06:24:38.150Z,19.00
2018-06-19T06:27:06.855Z,19.20
2018-06-19T06:29:35.170Z,19.10
2018-06-19T06:32:03.442Z,18.90
2018-06-19T06:34:31.657Z,18.90
2018-06-19T06:37:00.593Z,18.80
2018-06-19T06:39:28.662Z,18.80
2018-06-19T06:41:57.110Z,18.80
2018-06-19T06:44:25.077Z,19.10
2018-06-19T06:46:53.595Z,19.80
2018-06-19T06:49:22.397Z,21.90
2018-06-19T06:51:50.400Z,22.90
2018-06-19T06:54:18.510Z,22.90
2018-06-19T06:56:46.463Z,22.70
2018-06-19T06:59:14.757Z,23.30
2018-06-19T07:01:43.336Z,23.60
2018-06-19T07:04:11.343Z,23.70
2018-06-19T07:06:39.400Z,23.00
2018-06-19T07:09:09.957Z,22.00
2018-06-19T07:11:39.785Z,21.90
2018-06-19T07:14:08.674Z,21.60
2018-06-19T07:16:37.582Z,21.60
2018-06-19T07:19:05.679Z,22.70
2018-06-19T07:21:35.111Z,23.70
2018-06-19T07:26:32.362Z,24.30
2018-06-19T07:29:01.086Z,25.70
2018-06-19T07:31:30.821Z,25.50
2018-06-19T07:34:02.179Z,25.00
2018-06-19T07:36:30.352Z,26.00
2018-06-19T07:38:58.460Z,24.50
2018-06-19T07:41:26.970Z,24.40
2018-06-19T07:43:55.820Z,25.90
2018-06-19T07:46:24.495Z,25.80
2018-06-19T07:48:52.499Z,24.70
2018-06-19T07:51:21.725Z,24.10
2018-06-19T07:53:50.203Z,24.00
2018-06-19T07:56:18.346Z,23.50
2018-06-19T07:58:47.285Z,22.70
2018-06-19T08:01:15.374Z,21.60
2018-06-19T08:03:43.403Z,21.70
2018-06-19T08:06:11.720Z,22.00
2018-06-19T08:08:40.796Z,21.80
2018-06-19T08:11:08.790Z,22.50
2018-06-19T08:13:37.031Z,23.30
2018-06-19T08:16:09.083Z,22.80
2018-06-19T08:18:38.775Z,22.20
2018-06-19T08:21:07.624Z,22.10
2018-06-19T08:23:37.117Z,22.10
2018-06-19T08:26:05.565Z,22.20
2018-06-19T08:28:34.230Z,22.30
2018-06-19T08:31:02.398Z,22.90
2018-06-19T08:33:30.393Z,23.10
2018-06-19T08:35:58.402Z,22.80
2018-06-19T08:38:26.661Z,23.10
2018-06-19T08:40:54.659Z,23.10
2018-06-19T08:43:22.650Z,22.40
2018-06-19T08:45:51.171Z,22.30
2018-06-19T08:48:20.378Z,22.10
2018-06-19T08:50:48.934Z,22.50
2018-06-19T08:53:17.418Z,22.50
2018-06-19T08:55:45.950Z,22.90
2018-06-19T08:58:14.001Z,23.10
2018-06-19T09:00:42.383Z,23.30
2018-06-19T09:03:10.986Z,23.10
2018-06-19T09:05:39.358Z,23.20
2018-06-19T09:08:07.546Z,23.20
2018-06-19T09:10:35.634Z,23.00
2018-06-19T09:13:03.694Z,23.20
2018-06-19T09:15:33.803Z,23.60
2018-06-19T09:18:03.834Z,23.80
2018-06-19T09:20:33.770Z,24.00
2018-06-19T09:23:01.997Z,23.60
2018-06-19T09:25:30.442Z,23.50
2018-06-19T09:27:58.799Z,23.30
2018-06-19T09:30:26.844Z,22.90
2018-06-19T09:32:56.032Z,23.00
2018-06-19T09:35:24.104Z,22.70
2018-06-19T09:37:53.093Z,22.80
2018-06-19T09:40:21.616Z,22.60
2018-06-19T09:42:49.721Z,22.90
2018-06-19T09:45:18.265Z,22.90
2018-06-19T09:47:47.503Z,22.90
2018-06-19T09:50:17.542Z,22.80
2018-06-19T09:52:46.121Z,22.60
2018-06-19T09:55:14.934Z,22.50
2018-06-19T09:57:43.329Z,22.70
2018-06-19T10:00:15.369Z,22.60
2018-06-19T10:02:43.483Z,22.70
2018-06-19T10:05:11.516Z,22.90
2018-06-19T10:07:39.706Z,23.00
2018-06-19T10:10:07.755Z,22.70
2018-06-19T10:12:36.004Z,22.90
2018-06-19T10:15:04.179Z,22.80
2018-06-19T10:17:32.453Z,22.90
2018-06-19T10:20:00.654Z,22.80
2018-06-19T10:22:28.778Z,22.70
2018-06-19T10:24:57.014Z,22.60
2018-06-19T10:27:25.180Z,22.30
2018-06-19T10:29:53.531Z,22.50
2018-06-19T10:32:23.099Z,22.70
2018-06-19T10:34:51.642Z,22.40
2018-06-19T10:37:19.740Z,22.40
2018-06-19T10:39:47.771Z,22.60
2018-06-19T10:42:27.789Z,22.90
2018-06-19T10:44:57.147Z,23.00
2018-06-19T10:47:26.612Z,22.70
2018-06-19T10:49:54.833Z,22.70
2018-06-19T10:52:23.353Z,23.10
2018-06-19T10:54:52.158Z,23.00
2018-06-19T10:57:21.323Z,23.10
2018-06-19T10:59:49.720Z,23.20
2018-06-19T11:02:18.056Z,23.20
2018-06-19T11:04:47.202Z,22.80
2018-06-19T11:07:15.509Z,23.00
2018-06-19T11:09:43.633Z,23.10
2018-06-19T11:12:11.679Z,23.00
2018-06-19T11:14:41.732Z,23.00
2018-06-19T11:17:10.808Z,23.10
2018-06-19T11:19:40.048Z,23.10
2018-06-19T11:22:10.238Z,23.10
2018-06-19T11:24:38.367Z,23.00
2018-06-19T11:27:06.751Z,23.10
2018-06-19T11:29:34.741Z,22.90
2018-06-19T11:32:03.562Z,23.30
2018-06-19T11:34:31.731Z,23.40
2018-06-19T11:37:00.970Z,23.60
2018-06-19T11:39:29.774Z,23.70
2018-06-19T11:41:59.102Z,23.70
2018-06-19T11:44:30.863Z,23.70
2018-06-19T11:47:00.566Z,23.30
2018-06-19T11:49:30.461Z,23.30
2018-06-19T11:51:59.100Z,23.60
2018-06-19T11:54:27.284Z,23.80
2018-06-19T11:56:56.052Z,23.60
2018-06-19T11:59:24.744Z,23.80
2018-06-19T12:01:55.395Z,23.60
2018-06-19T12:04:23.349Z,23.60
2018-06-19T12:06:52.010Z,23.60
2018-06-19T12:09:20.054Z,23.70
2018-06-19T12:11:48.158Z,24.10
2018-06-19T12:14:16.382Z,23.90
2018-06-19T12:16:44.628Z,24.00
2018-06-19T12:19:12.658Z,24.10
2018-06-19T12:21:41.307Z,24.10
2018-06-19T12:24:10.768Z,23.80
2018-06-19T12:26:41.266Z,23.50
2018-06-19T12:29:09.839Z,23.40
2018-06-19T12:31:38.190Z,23.40
2018-06-19T12:34:06.927Z,23.00
2018-06-19T12:36:35.877Z,23.30
2018-06-19T12:39:09.338Z,23.20
2018-06-19T12:41:40.139Z,23.10
2018-06-19T12:44:09.220Z,23.10
2018-06-19T12:46:38.013Z,23.00
2018-06-19T12:49:07.766Z,23.00
2018-06-19T12:55:54.776Z,23.10
2018-06-19T12:58:23.386Z,23.00
2018-06-19T13:00:53.855Z,23.00
2018-06-19T13:03:33.719Z,23.20
2018-06-19T13:06:13.804Z,22.90
2018-06-19T13:08:48.003Z,23.00
2018-06-19T13:11:16.185Z,23.10
2018-06-19T13:13:56.925Z,23.00
2018-06-19T13:16:36.080Z,22.90
2018-06-19T13:19:15.170Z,22.90
2018-06-19T13:21:44.355Z,22.50
2018-06-19T13:24:12.557Z,22.60
2018-06-19T13:26:40.971Z,22.50
2018-06-19T13:29:47.720Z,22.50
2018-06-19T13:32:17.192Z,22.50
2018-06-19T13:34:45.368Z,22.30
2018-06-19T13:37:15.829Z,22.50
2018-06-19T13:39:44.405Z,22.60
2018-06-19T13:42:29.514Z,22.70
2018-06-19T13:45:02.435Z,22.60
2018-06-19T13:47:31.515Z,22.80
2018-06-19T13:50:02.721Z,23.00
2018-06-19T13:52:31.364Z,23.00
2018-06-19T13:57:15.211Z,23.20
2018-06-19T13:59:44.987Z,23.00
2018-06-19T14:02:14.341Z,23.20
2018-06-19T14:04:44.598Z,23.20
2018-06-19T14:07:16.175Z,23.40
2018-06-19T14:10:02.274Z,23.30
2018-06-19T14:13:12.921Z,23.20
2018-06-19T14:15:48.106Z,23.40
2018-06-19T14:18:18.799Z,23.30
2018-06-19T14:20:47.750Z,23.40
2018-06-19T14:23:16.819Z,23.50
2018-06-19T14:25:46.424Z,23.20
2018-06-19T14:28:14.700Z,23.20
2018-06-19T14:30:47.102Z,23.30
2018-06-19T14:33:20.818Z,23.50
2018-06-19T14:35:55.750Z,23.70
2018-06-19T14:38:24.535Z,23.50
2018-06-19T14:40:53.686Z,23.20
2018-06-19T14:43:24.332Z,23.20
2018-06-19T14:45:54.457Z,23.10
2018-06-19T14:48:24.649Z,22.80
2018-06-19T14:50:54.205Z,22.90
2018-06-19T14:53:25.867Z,22.90
2018-06-19T14:55:53.891Z,23.20
2018-06-19T14:58:22.949Z,23.20
2018-06-19T15:00:52.135Z,23.00
2018-06-19T15:03:21.354Z,23.00
2018-06-19T15:05:50.497Z,23.00
2018-06-19T15:08:19.135Z,22.70
2018-06-19T15:10:47.291Z,22.70
2018-06-19T15:13:15.529Z,22.80
2018-06-19T15:15:44.145Z,22.80
2018-06-19T15:18:13.430Z,22.70
2018-06-19T15:20:43.273Z,22.70
2018-06-19T15:23:11.588Z,22.80
2018-06-19T15:25:46.037Z,22.30
2018-06-19T15:28:16.151Z,22.60
2018-06-19T15:30:44.122Z,22.90
2018-06-19T15:33:12.336Z,22.50
2018-06-19T15:35:42.605Z,22.90
2018-06-19T15:38:12.841Z,23.10
2018-06-19T15:40:42.206Z,23.10
2018-06-19T15:43:11.273Z,23.10
2018-06-19T15:45:40.794Z,23.00
2018-06-19T15:48:10.016Z,23.00
2018-06-19T15:50:38.102Z,23.20
2018-06-19T15:53:06.217Z,23.20
2018-06-19T15:55:40.469Z,23.00
2018-06-19T15:58:09.338Z,23.10
2018-06-19T16:00:38.667Z,23.10
2018-06-19T16:03:07.003Z,23.00
2018-06-19T16:10:37.414Z,22.70
2018-06-19T16:13:06.354Z,23.00
2018-06-19T16:15:36.130Z,23.20
2018-06-19T16:18:06.115Z,23.30
2018-06-19T16:20:34.770Z,23.40
2018-06-19T16:23:06.257Z,23.30
2018-06-19T16:25:34.266Z,23.40
2018-06-19T16:28:03.223Z,23.50
2018-06-19T16:30:34.112Z,23.40
2018-06-19T16:33:02.503Z,23.40
2018-06-19T16:35:31.828Z,23.50
2018-06-19T16:38:11.262Z,23.30
2018-06-19T16:40:41.624Z,23.00
2018-06-19T16:43:11.349Z,23.00
2018-06-19T16:45:40.209Z,22.90
2018-06-19T16:48:09.346Z,23.00
2018-06-19T16:50:37.770Z,22.90
2018-06-19T16:53:05.960Z,22.90
2018-06-19T16:55:34.735Z,22.70
2018-06-19T16:58:03.025Z,22.70
2018-06-19T17:00:32.266Z,22.60
2018-06-19T17:03:01.085Z,22.60
2018-06-19T17:05:33.365Z,22.50
2018-06-19T17:08:01.652Z,22.50
2018-06-19T17:10:30.019Z,22.50
2018-06-19T17:12:59.344Z,22.40
2018-06-19T17:15:33.240Z,22.40
2018-06-19T17:18:45.710Z,22.40
2018-06-19T17:21:15.386Z,22.40
2018-06-19T17:23:44.860Z,22.10
2018-06-19T17:26:15.022Z,22.30
2018-06-19T17:28:51.306Z,22.40
2018-06-19T17:31:23.362Z,22.40
2018-06-19T17:34:03.816Z,22.50
2018-06-19T17:36:32.859Z,22.50
2018-06-19T17:39:05.062Z,22.50
2018-06-19T17:41:37.694Z,22.50
2018-06-19T17:44:07.632Z,22.50
2018-06-19T17:46:39.677Z,22.40
2018-06-19T17:49:07.747Z,22.50
2018-06-19T17:51:53.636Z,22.60
2018-06-19T17:54:24.582Z,22.70
2018-06-19T17:56:55.026Z,22.60
2018-06-19T17:59:25.628Z,22.70
2018-06-19T18:01:56.062Z,22.80
2018-06-19T18:04:28.066Z,22.90
2018-06-19T18:06:58.100Z,22.80
2018-06-19T18:09:34.074Z,22.70
2018-06-19T18:12:04.676Z,22.50
2018-06-19T18:14:32.704Z,22.40
2018-06-19T18:17:03.092Z,22.30
2018-06-19T18:19:31.350Z,22.10
2018-06-19T18:22:00.208Z,22.10
2018-06-19T18:24:28.592Z,22.10
2018-06-19T18:26:56.833Z,21.90
2018-06-19T18:29:25.758Z,21.70
2018-06-19T18:31:56.109Z,21.80
2018-06-19T18:34:26.558Z,21.50
2018-06-19T18:36:54.682Z,21.50
2018-06-19T18:39:23.355Z,21.40
2018-06-19T18:41:52.713Z,21.50
2018-06-19T18:44:22.113Z,21.50
2018-06-19T18:46:55.657Z,21.50
2018-06-19T18:49:27.450Z,21.50
2018-06-19T18:51:57.895Z,21.40
2018-06-19T18:54:28.389Z,21.40
2018-06-19T18:59:28.433Z,21.20
2018-06-19T19:01:56.820Z,21.10
2018-06-19T19:06:59.053Z,21.00
2018-06-19T19:09:27.540Z,21.00
2018-06-19T19:11:58.686Z,20.90
2018-06-19T19:14:31.839Z,20.80
2018-06-19T19:17:06.690Z,20.80
2018-06-19T19:19:37.771Z,20.80
2018-06-19T19:22:14.853Z,20.70
2018-06-19T19:24:45.327Z,20.60
2018-06-19T19:27:24.353Z,20.60
2018-06-19T19:29:53.457Z,20.50
2018-06-19T19:32:23.665Z,20.50
2018-06-19T19:35:01.155Z,20.50
2018-06-19T19:37:36.931Z,20.50
2018-06-19T19:40:16.466Z,20.40
2018-06-19T19:46:01.375Z,20.30
2018-06-19T19:48:57.969Z,20.30
2018-06-19T19:51:33.793Z,20.20
2018-06-19T19:56:54.906Z,20.20
2018-06-19T19:59:23.773Z,20.10
2018-06-19T20:01:55.362Z,20.10
2018-06-19T20:04:32.556Z,20.00
2018-06-19T20:09:32.048Z,19.90
2018-06-19T20:14:29.781Z,19.90
2018-06-19T20:16:59.282Z,19.80
2018-06-19T20:22:31.281Z,19.70
2018-06-19T20:24:59.796Z,19.60
2018-06-19T20:27:28.229Z,19.50
2018-06-19T20:29:57.841Z,19.50
2018-06-19T20:32:27.687Z,19.50
2018-06-19T20:34:56.744Z,19.40
2018-06-19T20:37:39.824Z,19.40
2018-06-19T20:40:21.840Z,19.30
2018-06-19T20:43:00.293Z,19.20
2018-06-19T20:45:47.169Z,19.20
2018-06-19T20:48:19.832Z,19.10
2018-06-19T20:50:52.557Z,19.00
2018-06-19T20:53:24.348Z,19.00
2018-06-19T20:55:53.511Z,18.90
2018-06-19T20:58:24.419Z,18.90
2018-06-19T21:00:55.897Z,18.90
2018-06-19T21:03:24.394Z,18.80
2018-06-19T21:05:53.919Z,18.80
2018-06-19T21:08:26.586Z,18.80
2018-06-19T21:11:02.171Z,18.80
2018-06-19T21:13:32.580Z,18.80
2018-06-19T21:16:03.230Z,18.80
2018-06-19T21:18:34.153Z,18.70
2018-06-19T21:21:02.876Z,18.70
2018-06-19T21:23:31.657Z,18.60
2018-06-19T21:26:02.739Z,18.50
2018-06-19T21:28:34.133Z,18.50
2018-06-19T21:33:36.894Z,18.30
2018-06-19T21:36:08.663Z,18.30
2018-06-19T21:38:42.396Z,18.30
2018-06-19T21:41:13.166Z,18.30
2018-06-19T21:43:44.090Z,18.20
2018-06-19T21:48:46.845Z,18.20
2018-06-19T21:56:18.175Z,18.00
2018-06-19T21:58:51.181Z,18.00
2018-06-19T22:01:20.478Z,18.00
2018-06-19T22:03:49.981Z,17.90
2018-06-19T22:06:19.508Z,17.70
2018-06-19T22:08:54.035Z,17.80
2018-06-19T22:11:24.035Z,17.80
2018-06-19T22:13:53.349Z,17.70
2018-06-19T22:16:21.494Z,17.60
2018-06-19T22:18:50.270Z,17.70
2018-06-19T22:21:19.677Z,17.60
2018-06-19T22:23:49.276Z,17.70
2018-06-19T22:26:19.450Z,17.60
2018-06-19T22:28:48.193Z,17.70
2018-06-19T22:31:17.596Z,17.60
2018-06-19T22:33:48.012Z,17.60
2018-06-19T22:36:17.645Z,17.50
2018-06-19T22:38:47.471Z,17.50
2018-06-19T22:41:18.390Z,17.50
2018-06-19T22:43:48.645Z,17.40
2018-06-19T22:46:16.798Z,17.50
2018-06-19T22:48:45.089Z,17.40
2018-06-19T22:51:14.383Z,17.40
2018-06-19T22:53:42.615Z,17.40
2018-06-19T22:56:12.308Z,17.30
2018-06-19T22:58:41.006Z,17.20
2018-06-19T23:01:12.186Z,17.20
2018-06-19T23:03:40.987Z,17.30
2018-06-19T23:06:10.364Z,17.20
2018-06-19T23:08:38.802Z,17.20
2018-06-19T23:11:07.468Z,17.10
2018-06-19T23:13:36.188Z,17.10
2018-06-19T23:16:07.422Z,17.00
2018-06-19T23:18:36.879Z,17.10
2018-06-19T23:23:33.494Z,17.00
2018-06-19T23:26:01.877Z,16.90
2018-06-19T23:28:30.309Z,16.60
2018-06-19T23:33:27.153Z,16.30
2018-06-19T23:38:26.381Z,16.20
2018-06-19T23:40:58.834Z,16.20
2018-06-19T23:45:55.726Z,16.30
2018-06-19T23:48:24.003Z,16.30
2018-06-19T23:50:52.154Z,16.30
2018-06-19T23:55:52.703Z,16.30
2018-06-19T23:58:20.763Z,16.20
